METAR AND TAF INFORMATION
METAR FOR WIII
ADDS - METARS form results

(0955 UTC 24 May 2018)
Data provider http://aviationweather.gov/adds/metars/
 
METAR text: WIII 240930Z 09011KT 9999 SCT020 30/25 Q1007 NOSIG
Conditions at: WIII (SOEKARNO-HATTA I, ID) observed 0930 UTC 24 May 2018
Temperature: 30.0°C (86°F)
Dewpoint: 25.0°C (77°F) [RH = 75%]
Pressure (altimeter): 29.73 inches Hg (1007.0 mb)
Winds: from the E (90 degrees) at 13 MPH (11 knots; 5.7 m/s)
Visibility: 6 or more miles (10+ km)
Ceiling: at least 12,000 feet AGL
Clouds: scattered clouds at 2000 feet AGL
Weather: no significant weather observed at this time

METAR text: WIII 240900Z 08012KT 9999 SCT020 31/24 Q1006 NOSIG
Conditions at: WIII (SOEKARNO-HATTA I, ID) observed 0900 UTC 24 May 2018
Temperature: 31.0°C (88°F)
Dewpoint: 24.0°C (75°F) [RH = 66%]
Pressure (altimeter): 29.70 inches Hg (1006.0 mb)
Winds: from the E (80 degrees) at 14 MPH (12 knots; 6.2 m/s)
Visibility: 6 or more miles (10+ km)
Ceiling: at least 12,000 feet AGL
Clouds: scattered clouds at 2000 feet AGL
Weather: no significant weather observed at this time

Forecast for: WIII (SOEKARNO-HATTA I, ID)
Text: TAF WIII 240500Z 2406/2512 05012KT 9999 SCT020
Forecast period: 0600 UTC 24 May 2018 to 1200 UTC 25 May 2018
Forecast type: FROM: standard forecast or significant change
Winds: from the NE (50 degrees) at 14 MPH (12 knots; 6.2 m/s)
Visibility: 6 or more miles (10+ km)
Clouds: scattered clouds at 2000 feet AGL
Weather: no significant weather forecast for this period
Forecast for: WIII (SOEKARNO-HATTA I, ID)
Text: TAF WIII 240500Z 2406/2512 05012KT 9999 SCT020
Forecast period: 0600 UTC 24 May 2018 to 1200 UTC 25 May 2018
Forecast type: FROM: standard forecast or significant change
Winds: from the NE (50 degrees) at 14 MPH (12 knots; 6.2 m/s)
Visibility: 6 or more miles (10+ km)
Clouds: scattered clouds at 2000 feet AGL
Weather: no significant weather forecast for this period
Forecast for: WIII (SOEKARNO-HATTA I, ID)
Text: TAF WIII 240500Z 2406/2512 05012KT 9999 SCT020
Forecast period: 0600 to 0800 UTC 24 May 2018
Forecast type: TEMPORARY: The following changes expected for less than half the time period
Visibility: 4 miles (7 km)
Clouds: few clouds at 2000 feet AGL
scattered clouds at 2000 feet AGL
Weather: VCTS  (thunderstorm in vicinity)
Forecast for: WIII (SOEKARNO-HATTA I, ID)
Text: TAF WIII 240500Z 2406/2512 05012KT 9999 SCT020
Forecast period: 0600 to 0800 UTC 24 May 2018
Forecast type: TEMPORARY: The following changes expected for less than half the time period
Visibility: 4 miles (7 km)
Clouds: few clouds at 2000 feet AGL
scattered clouds at 2000 feet AGL
Weather: VCTS  (thunderstorm in vicinity)
Forecast for: WIII (SOEKARNO-HATTA I, ID)
Text: TAF WIII 240500Z 2406/2512 05012KT 9999 SCT020
Forecast period: 1200 to 1500 UTC 24 May 2018
Forecast type: TEMPORARY: The following changes expected for less than half the time period
Visibility: 2.49 miles (4.01 km)
Clouds: few clouds at 1800 feet AGL
scattered clouds at 2000 feet AGL
Weather: -TSRA  (light rain associated with thunderstorm(s))
Forecast for: WIII (SOEKARNO-HATTA I, ID)
Text: TAF WIII 240500Z 2406/2512 05012KT 9999 SCT020
Forecast period: 1200 to 1500 UTC 24 May 2018
Forecast type: TEMPORARY: The following changes expected for less than half the time period
Visibility: 2.49 miles (4.01 km)
Clouds: few clouds at 1800 feet AGL
scattered clouds at 2000 feet AGL
Weather: -TSRA  (light rain associated with thunderstorm(s))

 AIRPORT MAP

 RUNWAY INFORMATION
Runway 07L Runway length 11812 ft Runway width 197 ft
Runway elevation 29 ft Runway displaced threshold 0 ft Runway heading 68
Runway 25R Runway length 11812 ft Runway width 197 ft
Runway elevation 21 ft Runway displaced threshold 0 ft Runway heading 248
Runway 07R Runway length 12008 ft Runway width 197 ft
Runway elevation 34 ft Runway displaced threshold 0 ft Runway heading 68
Runway 25L Runway length 12008 ft Runway width 197 ft
Runway elevation 27 ft Runway displaced threshold 0 ft Runway heading 248

 AIRPORT FREQUENCIES
Type APP Name JAKARTA AP Frequency 119.75 MHZ
Type ARR Name JAKARTA AR Frequency 125.45 MHZ
Type ATIS Name ATIS Frequency 126.85 MHZ
Type CLD Name CLNC DEL Frequency 121.95 MHZ
Type FSS Name JAKARTA CE Frequency 129.7 MHZ
Type GND Name GND Frequency 121.6 MHZ
Type INFO Name PABELOKAN Frequency 129.8 MHZ
Type TWR Name TWR Frequency 118.75 MHZ

 AIRPORT NEAR NAVIGATION AIDS
Type VOR-DME Name Cengkareng Frequency 113600 KHZ
Type VOR-DME Name Jakarta Frequency 114600 KHZ



Powered by Virtual Airlines Manager [v2.6.2]